Time;durP1;ratioP1;P1;durP2;ratioP2;P2;SDS_P1;SDS_P2;PMS_P1;PMS_P2;Temp;Humidity;BMP_temperature;BMP_pressure;BME280_temperature;BME280_humidity;BME280_pressure;Samples;Min_cycle;Max_cycle;Signal;HPM_P1;HPM_P2
2022/01/23 00:00:58;;;;;;;20.90;11.85;;;5.50;99.90;;;;;;5059855;28;20292;-70
2022/01/23 00:03:25;;;;;;;18.13;12.88;;;5.50;99.90;;;;;;5054185;28;20206;-69
2022/01/23 00:05:53;;;;;;;18.92;14.60;;;5.50;99.90;;;;;;5057572;28;20202;-70
2022/01/23 00:08:21;;;;;;;18.27;13.95;;;5.50;99.90;;;;;;5061334;28;20209;-69
2022/01/23 00:10:51;;;;;;;20.90;11.75;;;5.40;99.90;;;;;;5051388;28;20204;-71
2022/01/23 00:13:26;;;;;;;15.32;12.82;;;5.50;99.90;;;;;;5064448;28;20213;-69
2022/01/23 00:18:39;;;;;;;20.85;13.30;;;5.40;99.90;;;;;;5053354;28;20232;-68
2022/01/23 00:21:06;;;;;;;19.50;12.82;;;5.50;99.90;;;;;;5052836;28;20266;-70
2022/01/23 00:30:18;;;;;;;23.13;14.88;;;5.40;99.90;;;;;;5059411;28;20259;-68
2022/01/23 00:31:51;;;;;;;16.55;11.90;;;5.40;99.90;;;;;;5049494;28;20605;-74
2022/01/23 00:34:19;;;;;;;17.23;12.07;;;5.40;99.90;;;;;;5057344;28;20218;-70
2022/01/23 00:36:46;;;;;;;20.35;14.82;;;5.40;99.90;;;;;;5054954;28;20226;-70
2022/01/23 00:39:13;;;;;;;19.77;12.45;;;5.40;99.90;;;;;;5055705;28;20241;-70
2022/01/23 00:41:39;;;;;;;18.55;11.75;;;5.50;99.90;;;;;;5050412;28;20621;-69
2022/01/23 00:44:06;;;;;;;19.05;11.00;;;5.50;99.90;;;;;;5055552;28;20197;-70
2022/01/23 00:46:35;;;;;;;17.10;14.93;;;5.50;99.90;;;;;;5052861;28;20231;-68
2022/01/23 00:49:24;;;;;;;22.77;13.68;;;5.50;99.90;;;;;;5063475;28;20204;-69
2022/01/23 00:51:52;;;;;;;19.30;12.88;;;5.50;99.90;;;;;;5051966;28;20308;-70
2022/01/23 00:54:19;;;;;;;17.13;11.07;;;5.40;99.90;;;;;;5058036;28;20264;-70
2022/01/23 00:56:46;;;;;;;14.57;12.45;;;5.40;99.90;;;;;;5057225;28;20298;-69
2022/01/23 00:59:13;;;;;;;27.48;12.30;;;5.40;99.90;;;;;;5058114;28;20283;-69
2022/01/23 01:01:40;;;;;;;16.30;14.40;;;5.40;99.90;;;;;;5059733;28;20201;-70
2022/01/23 01:04:08;;;;;;;22.25;13.30;;;5.30;99.90;;;;;;5054519;28;20240;-70
2022/01/23 01:06:35;;;;;;;16.33;13.40;;;5.30;99.90;;;;;;5054080;28;20607;-71
2022/01/23 01:09:05;;;;;;;16.90;12.90;;;5.30;99.90;;;;;;5048926;28;20202;-70
2022/01/23 01:14:55;;;;;;;21.40;10.40;;;5.30;99.90;;;;;;5038966;28;20201;-70
2022/01/23 01:17:24;;;;;;;17.38;12.60;;;5.30;99.90;;;;;;5049994;28;20221;-69
2022/01/23 01:30:58;;;;;;;21.17;13.07;;;5.30;99.90;;;;;;5066710;28;20239;-70
2022/01/23 01:33:35;;;;;;;17.58;12.60;;;5.30;99.90;;;;;;5059244;28;20206;-69
2022/01/23 01:36:17;;;;;;;15.73;11.98;;;5.30;99.90;;;;;;5062123;28;20446;-70
2022/01/23 01:38:44;;;;;;;21.02;13.98;;;5.40;99.90;;;;;;5059997;28;20282;-69
2022/01/23 01:41:11;;;;;;;26.35;13.57;;;5.40;99.90;;;;;;5056661;28;20217;-67
2022/01/23 01:43:37;;;;;;;14.90;10.88;;;5.40;99.90;;;;;;5052043;28;20897;-67
2022/01/23 01:46:04;;;;;;;20.10;12.93;;;5.40;99.90;;;;;;5052847;28;20244;-69
2022/01/23 01:48:31;;;;;;;15.52;12.38;;;5.50;99.90;;;;;;5050862;28;20229;-68
2022/01/23 01:50:59;;;;;;;18.20;13.70;;;5.40;99.90;;;;;;5058643;28;20202;-69
2022/01/23 01:53:27;;;;;;;21.42;12.68;;;5.40;99.90;;;;;;5050479;28;20308;-68
2022/01/23 01:55:57;;;;;;;18.42;12.45;;;5.40;99.90;;;;;;5065086;28;20263;-68
2022/01/23 01:59:09;;;;;;;15.63;10.82;;;5.40;99.90;;;;;;5050407;28;20248;-69
2022/01/23 02:09:46;;;;;;;19.67;13.57;;;5.40;99.90;;;;;;5053224;28;20217;-68
2022/01/23 02:12:37;;;;;;;22.73;15.95;;;5.40;99.90;;;;;;5050562;28;20347;-68
2022/01/23 02:17:59;;;;;;;12.38;11.05;;;5.40;99.90;;;;;;5068531;28;20253;-67
2022/01/23 02:23:29;;;;;;;20.52;12.23;;;5.40;99.90;;;;;;5053422;28;20228;-67
2022/01/23 02:50:47;;;;;;;22.45;15.52;;;5.30;99.90;;;;;;5057736;28;20259;-67
2022/01/23 02:53:35;;;;;;;17.35;13.07;;;5.30;99.90;;;;;;5076557;28;20266;-68
2022/01/23 02:56:04;;;;;;;20.13;13.15;;;5.30;99.90;;;;;;5066746;28;20316;-68
2022/01/23 02:58:36;;;;;;;24.13;12.27;;;5.30;99.90;;;;;;5070219;28;20301;-68
2022/01/23 03:01:14;;;;;;;20.33;11.52;;;5.30;99.90;;;;;;5069128;28;20235;-69
2022/01/23 03:03:45;;;;;;;16.50;12.32;;;5.30;99.90;;;;;;5074075;28;20206;-69
2022/01/23 03:06:36;;;;;;;24.08;14.18;;;5.30;99.90;;;;;;5059592;28;20283;-68
2022/01/23 03:09:50;;;;;;;19.77;11.57;;;5.30;99.90;;;;;;5051396;28;20197;-71
2022/01/23 03:12:09;;;;;;;28.20;11.30;;;5.30;99.90;;;;;;5049101;28;20216;-67
2022/01/23 03:14:43;;;;;;;13.13;10.45;;;5.30;99.90;;;;;;5054372;28;20201;-67
2022/01/23 03:25:52;;;;;;;18.08;12.05;;;5.30;99.90;;;;;;5052554;28;20204;-68
2022/01/23 03:28:26;;;;;;;13.07;11.07;;;5.30;99.90;;;;;;5056473;28;20199;-68
2022/01/23 03:31:05;;;;;;;16.90;11.80;;;5.30;99.90;;;;;;5058726;28;20194;-67
2022/01/23 03:33:32;;;;;;;16.95;12.50;;;5.30;99.90;;;;;;5053564;28;20283;-69
2022/01/23 03:35:59;;;;;;;16.98;12.70;;;5.20;99.90;;;;;;5052732;28;20194;-69
2022/01/23 03:38:25;;;;;;;20.73;12.50;;;5.30;99.90;;;;;;5056874;28;20283;-67
2022/01/23 03:40:54;;;;;;;17.63;14.13;;;5.30;99.90;;;;;;5051200;28;20242;-67
2022/01/23 03:43:27;;;;;;;13.07;10.32;;;5.30;99.90;;;;;;5057934;28;20198;-67
2022/01/23 03:46:19;;;;;;;16.27;12.40;;;5.30;99.90;;;;;;5056650;28;20776;-68
2022/01/23 03:51:29;;;;;;;21.17;11.48;;;5.30;99.90;;;;;;5056948;28;20247;-68
2022/01/23 03:53:55;;;;;;;16.85;12.32;;;5.30;99.90;;;;;;5047685;28;20217;-70
2022/01/23 03:56:24;;;;;;;16.23;11.23;;;5.30;99.90;;;;;;5055426;28;20228;-70
2022/01/23 03:58:50;;;;;;;20.25;11.88;;;5.30;99.90;;;;;;5053170;28;20216;-69
2022/01/23 04:01:17;;;;;;;15.73;13.15;;;5.30;99.90;;;;;;5055427;28;20204;-70
2022/01/23 04:03:44;;;;;;;15.57;11.40;;;5.30;99.90;;;;;;5051723;28;20275;-70
2022/01/23 04:06:11;;;;;;;14.00;9.38;;;5.30;99.90;;;;;;5065647;28;20549;-70
2022/01/23 04:08:37;;;;;;;16.05;11.43;;;5.20;99.90;;;;;;5048285;28;20194;-70
2022/01/23 04:11:05;;;;;;;14.32;10.57;;;5.20;99.90;;;;;;5051043;28;20209;-70
2022/01/23 04:13:43;;;;;;;13.18;11.55;;;5.20;99.90;;;;;;5050321;28;20230;-70
2022/01/23 04:16:27;;;;;;;12.45;9.68;;;5.20;99.90;;;;;;5046988;28;20589;-69
2022/01/23 04:19:11;;;;;;;18.30;11.13;;;5.30;99.90;;;;;;5050111;28;20264;-70
2022/01/23 04:33:13;;;;;;;20.42;13.25;;;5.30;99.90;;;;;;5053911;28;20205;-68
2022/01/23 04:47:13;;;;;;;15.75;9.65;;;5.30;99.90;;;;;;5060360;28;20588;-68
2022/01/23 05:00:35;;;;;;;16.77;12.40;;;5.40;99.90;;;;;;5046847;28;20220;-69
2022/01/23 05:03:47;;;;;;;13.40;11.30;;;5.40;99.90;;;;;;5052699;28;20280;-70
2022/01/23 05:06:04;;;;;;;14.82;10.63;;;5.40;99.90;;;;;;5046715;28;20699;-67
2022/01/23 05:08:34;;;;;;;16.13;10.93;;;5.40;99.90;;;;;;5050441;28;20197;-67
2022/01/23 05:11:01;;;;;;;15.95;11.18;;;5.30;99.90;;;;;;5046093;28;20213;-67
2022/01/23 05:13:28;;;;;;;19.30;12.65;;;5.30;99.90;;;;;;5049477;28;20229;-68
2022/01/23 05:15:56;;;;;;;16.30;11.32;;;5.30;99.90;;;;;;5048990;28;20204;-67
2022/01/23 05:18:24;;;;;;;18.15;11.73;;;5.40;99.90;;;;;;5054713;28;20208;-69
2022/01/23 05:21:01;;;;;;;21.73;15.20;;;5.40;99.90;;;;;;5057969;28;20202;-70
2022/01/23 05:23:28;;;;;;;16.10;10.35;;;5.40;99.90;;;;;;5052560;28;20209;-69
2022/01/23 05:25:55;;;;;;;16.88;11.45;;;5.40;99.90;;;;;;5047107;28;20271;-69
2022/01/23 05:28:21;;;;;;;16.60;11.55;;;5.30;99.90;;;;;;5055649;28;20196;-69
2022/01/23 05:30:49;;;;;;;15.60;11.90;;;5.40;99.90;;;;;;5056129;28;20934;-69
2022/01/23 05:33:15;;;;;;;14.18;10.15;;;5.30;99.90;;;;;;5049239;28;20232;-69
2022/01/23 05:35:43;;;;;;;10.93;9.65;;;5.30;99.90;;;;;;5053818;28;20209;-69
2022/01/23 05:38:11;;;;;;;15.25;11.52;;;5.30;99.90;;;;;;5057486;28;20304;-70
2022/01/23 05:40:39;;;;;;;14.98;11.27;;;5.30;99.90;;;;;;5052398;28;20805;-69
2022/01/23 05:43:06;;;;;;;14.15;12.07;;;5.30;99.90;;;;;;5048419;28;20210;-68
2022/01/23 05:45:34;;;;;;;23.13;13.88;;;5.30;99.90;;;;;;5053091;28;20213;-69
2022/01/23 05:48:01;;;;;;;14.20;11.02;;;5.30;99.90;;;;;;5060046;28;20233;-71
2022/01/23 05:50:28;;;;;;;14.75;11.02;;;5.30;99.90;;;;;;5095000;22;20702;-68
2022/01/23 05:52:56;;;;;;;17.40;10.82;;;5.30;99.90;;;;;;5063243;28;20258;-70
2022/01/23 05:55:22;;;;;;;20.02;13.60;;;5.30;99.90;;;;;;5067602;28;20213;-69
2022/01/23 05:57:49;;;;;;;14.85;10.10;;;5.30;99.90;;;;;;5067904;28;20251;-69
2022/01/23 06:00:16;;;;;;;15.05;10.45;;;5.30;99.90;;;;;;5062087;28;20222;-68
2022/01/23 06:02:43;;;;;;;23.55;11.15;;;5.30;99.90;;;;;;5044175;28;20209;-68
2022/01/23 06:05:10;;;;;;;17.63;10.35;;;5.30;99.90;;;;;;5051597;28;20275;-70
2022/01/23 06:07:37;;;;;;;16.27;10.40;;;5.30;99.90;;;;;;5051845;28;20209;-70
2022/01/23 06:10:05;;;;;;;15.10;11.27;;;5.30;99.90;;;;;;5050721;28;20222;-70
2022/01/23 06:12:32;;;;;;;15.63;9.18;;;5.30;99.90;;;;;;5051545;28;20634;-69
2022/01/23 06:14:59;;;;;;;10.15;9.07;;;5.30;99.90;;;;;;5051504;28;20252;-69
2022/01/23 06:17:25;;;;;;;20.25;10.15;;;5.30;99.90;;;;;;5050888;28;20697;-70
2022/01/23 06:19:52;;;;;;;16.20;13.18;;;5.20;99.90;;;;;;5050467;28;20225;-70
2022/01/23 06:22:19;;;;;;;16.15;11.98;;;5.20;99.90;;;;;;5051537;28;20202;-69
2022/01/23 06:24:47;;;;;;;14.45;10.85;;;5.20;99.90;;;;;;5050887;28;20217;-69
2022/01/23 06:27:16;;;;;;;14.23;10.48;;;5.20;99.90;;;;;;5050986;28;20234;-69
2022/01/23 06:29:44;;;;;;;22.67;12.85;;;5.20;99.90;;;;;;5050398;28;20742;-70
2022/01/23 06:32:12;;;;;;;15.05;11.63;;;5.20;99.90;;;;;;5045484;28;20206;-70
2022/01/23 06:34:39;;;;;;;19.88;13.02;;;5.20;99.90;;;;;;5049529;28;20213;-70
2022/01/23 06:37:06;;;;;;;15.50;11.70;;;5.20;99.90;;;;;;5042846;28;20739;-70
2022/01/23 06:39:33;;;;;;;14.05;9.80;;;5.20;99.90;;;;;;5050095;28;20218;-68
2022/01/23 06:42:00;;;;;;;16.70;10.90;;;5.20;99.90;;;;;;5050031;28;20602;-69
2022/01/23 06:44:29;;;;;;;18.33;12.60;;;5.20;99.90;;;;;;5051551;28;20213;-68
2022/01/23 06:46:56;;;;;;;15.35;13.43;;;5.20;99.90;;;;;;5048754;28;21478;-70
2022/01/23 06:49:23;;;;;;;21.50;11.65;;;5.20;99.90;;;;;;5045421;28;20317;-69
2022/01/23 06:51:51;;;;;;;8.20;7.20;;;5.30;99.90;;;;;;5037812;28;20198;-69
2022/01/23 06:54:17;;;;;;;20.25;10.13;;;5.30;99.90;;;;;;5047244;28;20202;-70
2022/01/23 06:56:44;;;;;;;12.27;9.85;;;5.30;99.90;;;;;;5050398;28;20206;-69
2022/01/23 06:59:11;;;;;;;11.98;9.82;;;5.30;99.90;;;;;;5049072;28;20237;-69
2022/01/23 07:01:39;;;;;;;15.60;12.50;;;5.30;99.90;;;;;;5050026;28;20218;-69
2022/01/23 07:04:06;;;;;;;11.63;9.85;;;5.30;99.90;;;;;;5050451;28;21007;-69
2022/01/23 07:06:32;;;;;;;18.10;9.75;;;5.30;99.90;;;;;;5049865;28;20676;-69
2022/01/23 07:08:59;;;;;;;16.10;11.10;;;5.30;99.90;;;;;;5048636;28;20280;-70
2022/01/23 07:11:26;;;;;;;12.00;10.68;;;5.30;99.90;;;;;;5049789;28;20707;-69
2022/01/23 07:13:52;;;;;;;21.20;12.60;;;5.30;99.90;;;;;;5050705;28;20206;-70
2022/01/23 07:16:19;;;;;;;16.27;11.00;;;5.30;99.90;;;;;;5050282;28;20198;-69
2022/01/23 07:18:47;;;;;;;13.07;11.45;;;5.30;99.90;;;;;;5049274;28;20217;-69
2022/01/23 07:21:13;;;;;;;17.98;11.52;;;5.30;99.90;;;;;;5049463;28;20258;-70
2022/01/23 07:23:48;;;;;;;17.00;10.40;;;5.20;99.90;;;;;;5050572;28;20206;-70
2022/01/23 07:26:15;;;;;;;16.73;11.95;;;5.20;99.90;;;;;;5048701;28;20761;-69
2022/01/23 07:28:44;;;;;;;13.38;10.02;;;5.20;99.90;;;;;;5048748;28;20248;-68
2022/01/23 07:31:11;;;;;;;16.90;10.85;;;5.20;99.90;;;;;;5049071;28;20226;-69
2022/01/23 07:33:38;;;;;;;12.75;11.38;;;5.20;99.90;;;;;;5050497;28;20289;-69
2022/01/23 07:36:06;;;;;;;14.55;11.65;;;5.20;99.90;;;;;;5049294;28;20579;-70
2022/01/23 07:38:33;;;;;;;12.52;8.68;;;5.20;99.90;;;;;;5049070;28;20202;-70
2022/01/23 07:41:00;;;;;;;13.15;9.52;;;5.20;99.90;;;;;;5049972;28;20230;-68
2022/01/23 07:43:26;;;;;;;17.02;10.00;;;5.30;99.90;;;;;;5049776;28;20675;-70
2022/01/23 07:45:53;;;;;;;11.27;10.15;;;5.30;99.90;;;;;;5050583;28;20263;-69
2022/01/23 07:48:19;;;;;;;11.77;7.88;;;5.30;99.90;;;;;;5048612;28;20248;-69
2022/01/23 07:50:46;;;;;;;13.75;8.30;;;5.30;99.90;;;;;;5047276;28;20312;-69
2022/01/23 07:53:14;;;;;;;15.57;7.60;;;5.30;99.90;;;;;;5046890;28;20275;-69
2022/01/23 07:55:41;;;;;;;12.07;9.35;;;5.30;99.90;;;;;;5041012;28;20264;-70
2022/01/23 07:58:12;;;;;;;11.02;8.00;;;5.30;99.90;;;;;;5042158;28;20209;-70
2022/01/23 08:00:40;;;;;;;11.77;9.38;;;5.30;99.90;;;;;;5040107;28;20308;-70
2022/01/23 08:03:07;;;;;;;10.90;8.68;;;5.30;99.90;;;;;;5042393;28;20198;-69
2022/01/23 08:05:34;;;;;;;13.50;10.63;;;5.40;99.90;;;;;;5040659;28;20290;-70
2022/01/23 08:08:01;;;;;;;13.13;9.90;;;5.40;99.90;;;;;;5047911;28;20211;-71
2022/01/23 08:10:29;;;;;;;19.60;11.15;;;5.40;99.90;;;;;;5046643;28;20642;-70
2022/01/23 08:12:55;;;;;;;13.27;8.95;;;5.40;99.90;;;;;;5047417;28;20275;-70
2022/01/23 08:15:22;;;;;;;15.25;9.02;;;5.40;99.90;;;;;;5047925;28;20331;-70
2022/01/23 08:17:49;;;;;;;15.07;10.40;;;5.40;99.90;;;;;;5046725;28;20214;-70
2022/01/23 08:20:16;;;;;;;12.25;9.45;;;5.40;99.90;;;;;;5046269;28;20221;-70
2022/01/23 08:22:43;;;;;;;11.10;9.30;;;5.50;99.90;;;;;;5045183;28;20451;-70
2022/01/23 08:25:10;;;;;;;15.90;10.00;;;5.50;99.90;;;;;;5048289;28;20202;-70
2022/01/23 08:27:38;;;;;;;11.30;8.80;;;5.50;99.90;;;;;;5048738;28;20252;-70
2022/01/23 08:30:06;;;;;;;10.43;6.82;;;5.50;99.90;;;;;;5048579;28;20218;-69
2022/01/23 08:32:33;;;;;;;10.90;7.80;;;5.60;99.90;;;;;;5048937;28;20260;-69
2022/01/23 08:34:59;;;;;;;13.40;7.80;;;5.60;99.90;;;;;;5048629;28;20210;-69
2022/01/23 08:37:26;;;;;;;15.27;9.52;;;5.60;99.90;;;;;;5047556;28;20305;-70
2022/01/23 08:39:53;;;;;;;14.73;8.80;;;5.60;99.90;;;;;;5045567;28;20221;-70
2022/01/23 08:42:20;;;;;;;12.23;9.52;;;5.70;99.90;;;;;;5042881;28;20229;-70
2022/01/23 08:44:49;;;;;;;14.18;10.55;;;5.70;99.90;;;;;;5048080;28;20198;-68
2022/01/23 08:47:16;;;;;;;11.57;10.48;;;5.80;99.90;;;;;;5048433;28;20285;-69
2022/01/23 08:49:48;;;;;;;16.58;12.00;;;5.80;99.90;;;;;;5048250;28;20279;-69
2022/01/23 08:52:16;;;;;;;9.60;8.55;;;5.80;99.90;;;;;;5047749;28;20305;-69
2022/01/23 08:54:43;;;;;;;10.13;7.90;;;5.80;99.90;;;;;;5048618;28;20209;-70
2022/01/23 08:57:10;;;;;;;12.55;8.70;;;5.80;99.90;;;;;;5048448;28;20741;-69
2022/01/23 08:59:37;;;;;;;11.77;8.35;;;5.80;99.90;;;;;;5044938;28;20202;-71
2022/01/23 09:02:05;;;;;;;10.13;7.38;;;5.90;99.90;;;;;;5047303;28;20682;-71
2022/01/23 09:04:32;;;;;;;10.10;8.73;;;5.90;99.90;;;;;;5046248;28;20738;-69
2022/01/23 09:06:58;;;;;;;11.60;8.30;;;5.90;99.90;;;;;;5046960;28;20568;-70
2022/01/23 09:09:30;;;;;;;11.10;9.73;;;6.00;99.90;;;;;;5047490;28;20825;-71
2022/01/23 09:12:01;;;;;;;11.23;8.70;;;6.00;99.90;;;;;;5047739;28;20597;-71
2022/01/23 09:14:28;;;;;;;11.90;8.90;;;6.00;99.90;;;;;;5046837;28;20563;-72
2022/01/23 09:16:55;;;;;;;13.98;9.55;;;6.00;99.90;;;;;;5048533;28;20627;-71
2022/01/23 09:19:24;;;;;;;13.50;10.38;;;6.00;99.90;;;;;;5047225;28;20198;-67
2022/01/23 09:21:52;;;;;;;11.63;9.15;;;6.00;99.90;;;;;;5048426;28;20218;-72
2022/01/23 09:24:20;;;;;;;11.13;9.35;;;6.10;99.90;;;;;;5046683;28;20205;-70
2022/01/23 09:26:52;;;;;;;12.95;9.55;;;6.10;99.90;;;;;;5047796;28;20271;-70
2022/01/23 09:29:28;;;;;;;13.32;8.77;;;6.20;99.90;;;;;;5046828;28;20213;-69
2022/01/23 09:31:55;;;;;;;13.40;9.25;;;6.20;99.90;;;;;;5047296;28;20202;-70
2022/01/23 09:34:26;;;;;;;15.48;10.07;;;6.20;99.90;;;;;;5045484;28;20202;-70
2022/01/23 09:36:55;;;;;;;12.50;9.60;;;6.20;99.90;;;;;;5041854;28;20205;-70
2022/01/23 09:39:22;;;;;;;9.98;7.40;;;6.20;99.90;;;;;;5050104;28;20214;-69
2022/01/23 09:41:52;;;;;;;17.88;11.57;;;6.20;99.90;;;;;;5051352;28;20213;-69
2022/01/23 09:44:20;;;;;;;17.70;11.57;;;6.20;99.90;;;;;;5048879;28;20194;-69
2022/01/23 09:46:48;;;;;;;10.27;7.85;;;6.30;99.90;;;;;;5051853;28;20206;-68
2022/01/23 09:49:16;;;;;;;13.00;8.98;;;6.30;99.90;;;;;;5051342;28;20293;-68
2022/01/23 09:51:46;;;;;;;15.85;10.60;;;6.30;99.90;;;;;;5050904;28;20229;-69
2022/01/23 09:54:15;;;;;;;15.55;8.85;;;6.30;99.90;;;;;;5051792;28;20417;-69
2022/01/23 09:56:43;;;;;;;15.25;11.60;;;6.40;99.90;;;;;;5050949;28;20205;-69
2022/01/23 09:59:11;;;;;;;20.65;11.35;;;6.40;99.90;;;;;;5051192;28;20610;-69
2022/01/23 10:01:40;;;;;;;12.73;9.40;;;6.40;99.90;;;;;;5051309;28;20317;-68
2022/01/23 10:04:08;;;;;;;14.50;9.98;;;6.50;99.90;;;;;;5051727;28;20209;-69
2022/01/23 10:06:35;;;;;;;15.13;11.00;;;6.50;99.90;;;;;;5050170;28;20236;-68
2022/01/23 10:09:06;;;;;;;16.27;11.35;;;6.50;99.90;;;;;;5046617;28;20197;-69
2022/01/23 10:11:37;;;;;;;12.00;10.07;;;6.60;99.90;;;;;;5053886;28;20226;-69
2022/01/23 10:14:05;;;;;;;21.25;11.10;;;6.60;99.90;;;;;;5055483;28;20494;-67
2022/01/23 10:16:33;;;;;;;14.52;10.70;;;6.60;99.90;;;;;;5053783;28;20202;-70
2022/01/23 10:19:01;;;;;;;15.48;10.32;;;6.60;99.90;;;;;;5050018;28;20210;-73
2022/01/23 10:21:29;;;;;;;12.43;10.30;;;6.70;99.90;;;;;;5051053;28;20230;-68
2022/01/23 10:23:56;;;;;;;21.38;11.25;;;6.70;99.90;;;;;;5050992;28;20452;-69
2022/01/23 10:26:43;;;;;;;18.88;10.18;;;6.70;99.90;;;;;;5049648;28;20308;-70
2022/01/23 10:29:18;;;;;;;15.15;10.77;;;6.70;99.90;;;;;;5032610;28;20558;-70
2022/01/23 10:32:11;;;;;;;15.32;11.18;;;6.70;99.90;;;;;;5044357;28;20239;-68
2022/01/23 10:34:47;;;;;;;15.32;11.32;;;6.70;99.90;;;;;;5032181;28;20206;-68
2022/01/23 10:37:25;;;;;;;14.73;11.35;;;6.70;99.90;;;;;;5034497;28;20198;-68
2022/01/23 10:39:52;;;;;;;15.27;10.57;;;6.70;99.90;;;;;;5046037;28;20564;-68
2022/01/23 10:42:33;;;;;;;12.50;9.23;;;6.70;99.90;;;;;;5051425;28;20206;-67
2022/01/23 10:47:50;;;;;;;14.82;9.40;;;6.80;99.90;;;;;;5049335;28;20555;-65
2022/01/23 10:50:16;;;;;;;12.02;10.32;;;6.80;99.90;;;;;;5049814;28;20324;-66
2022/01/23 10:52:47;;;;;;;12.45;8.60;;;6.80;99.90;;;;;;5047493;28;20206;-68
2022/01/23 10:55:26;;;;;;;14.93;10.95;;;6.80;99.90;;;;;;5042624;28;20225;-66
2022/01/23 10:57:59;;;;;;;14.60;9.57;;;6.80;99.90;;;;;;5048923;28;20259;-66
2022/01/23 11:00:27;;;;;;;18.20;11.15;;;6.80;99.90;;;;;;5050688;28;20330;-65
2022/01/23 11:02:56;;;;;;;19.98;12.70;;;6.80;99.90;;;;;;5044249;28;20698;-66
2022/01/23 11:05:32;;;;;;;15.35;10.43;;;6.80;99.90;;;;;;5043621;28;20202;-67
2022/01/23 11:07:58;;;;;;;17.83;11.60;;;6.80;99.90;;;;;;5049010;28;20206;-67
2022/01/23 11:10:25;;;;;;;14.25;10.40;;;6.80;99.90;;;;;;5045554;28;20222;-65
2022/01/23 11:18:38;;;;;;;14.93;10.30;;;6.80;99.90;;;;;;5050012;28;20208;-64
2022/01/23 11:21:21;;;;;;;16.07;11.53;;;6.80;99.90;;;;;;5046196;28;20706;-65
2022/01/23 11:23:56;;;;;;;13.10;8.95;;;6.90;99.90;;;;;;5048989;28;20569;-67
2022/01/23 11:26:26;;;;;;;15.07;12.03;;;6.90;99.90;;;;;;5045103;28;20735;-66
2022/01/23 11:28:56;;;;;;;13.82;10.13;;;6.90;99.90;;;;;;5045070;28;20444;-66
2022/01/23 11:31:23;;;;;;;15.75;10.70;;;6.90;99.90;;;;;;5046392;28;20836;-66
2022/01/23 11:33:51;;;;;;;12.90;9.03;;;6.90;99.90;;;;;;5049128;28;20241;-64
2022/01/23 11:36:19;;;;;;;18.48;10.38;;;6.90;99.90;;;;;;5050505;28;20464;-65
2022/01/23 11:38:47;;;;;;;18.08;11.98;;;6.90;99.90;;;;;;5049973;28;20206;-66
2022/01/23 11:55:07;;;;;;;13.98;9.23;;;6.90;99.90;;;;;;5042077;28;20384;-66
2022/01/23 11:57:43;;;;;;;15.70;10.55;;;6.90;99.90;;;;;;5044842;28;20271;-66
2022/01/23 12:00:16;;;;;;;20.50;11.20;;;7.00;99.90;;;;;;5040586;28;20359;-66
2022/01/23 12:02:44;;;;;;;15.00;11.25;;;7.00;99.90;;;;;;5041573;28;20217;-66
2022/01/23 12:05:23;;;;;;;14.27;9.95;;;7.00;99.90;;;;;;5043284;28;20613;-66
2022/01/23 12:08:16;;;;;;;15.40;11.00;;;7.00;99.90;;;;;;5042894;28;20213;-66
2022/01/23 12:11:16;;;;;;;14.20;10.90;;;7.00;99.90;;;;;;5036852;28;20640;-66
2022/01/23 12:13:57;;;;;;;13.07;9.40;;;7.00;99.90;;;;;;5043669;28;20463;-66
2022/01/23 12:16:51;;;;;;;15.35;11.35;;;6.90;99.90;;;;;;5044975;28;20506;-66
2022/01/23 12:19:20;;;;;;;14.70;10.13;;;7.00;99.90;;;;;;5040788;28;20652;-64
2022/01/23 12:21:47;;;;;;;17.92;11.05;;;7.00;99.90;;;;;;5042593;28;20226;-66
2022/01/23 12:24:16;;;;;;;17.40;11.48;;;7.00;99.90;;;;;;5044523;28;20206;-64
2022/01/23 12:26:43;;;;;;;19.02;12.20;;;7.00;99.90;;;;;;5046258;28;20220;-64
2022/01/23 12:29:13;;;;;;;15.13;10.98;;;7.00;99.90;;;;;;5043302;28;20611;-64
2022/01/23 12:31:42;;;;;;;15.73;10.90;;;7.00;99.90;;;;;;5044735;28;20274;-65
2022/01/23 12:34:10;;;;;;;12.88;11.18;;;7.00;99.90;;;;;;5042204;28;20213;-64
2022/01/23 12:36:40;;;;;;;14.80;11.93;;;7.10;99.90;;;;;;5039677;28;20206;-64
2022/01/23 12:39:18;;;;;;;20.02;13.18;;;7.10;99.90;;;;;;5040454;28;20629;-64
2022/01/23 12:41:54;;;;;;;20.13;12.37;;;7.10;99.90;;;;;;5040798;28;20683;-64
2022/01/23 12:44:34;;;;;;;22.00;15.00;;;7.20;99.90;;;;;;5048901;28;20520;-64
2022/01/23 12:47:04;;;;;;;12.87;8.97;;;7.20;99.90;;;;;;5043168;28;20210;-66
2022/01/23 12:49:33;;;;;;;12.83;9.60;;;7.10;99.90;;;;;;5038647;28;20977;-66
2022/01/23 12:52:17;;;;;;;14.45;10.77;;;7.10;99.90;;;;;;5039896;28;20492;-64
2022/01/23 12:54:56;;;;;;;14.10;10.27;;;7.10;99.90;;;;;;5043015;28;20197;-66
2022/01/23 12:57:31;;;;;;;14.40;10.23;;;7.10;99.90;;;;;;5043030;28;20300;-65
2022/01/23 13:00:02;;;;;;;11.95;8.85;;;7.20;99.90;;;;;;5050006;28;20844;-64
2022/01/23 13:02:39;;;;;;;20.27;11.43;;;7.20;99.90;;;;;;5042710;28;20298;-64
2022/01/23 13:05:07;;;;;;;12.30;9.60;;;7.30;99.90;;;;;;5043378;28;20518;-66
2022/01/23 13:07:41;;;;;;;16.10;9.00;;;7.30;99.90;;;;;;5044230;28;20540;-67
2022/01/23 13:10:24;;;;;;;14.05;10.82;;;7.30;99.90;;;;;;5042260;28;20296;-64
2022/01/23 13:13:04;;;;;;;20.40;11.32;;;7.30;99.90;;;;;;5038521;28;20229;-65
2022/01/23 13:15:57;;;;;;;12.85;9.98;;;7.30;99.90;;;;;;5045368;28;20302;-64
2022/01/23 13:18:47;;;;;;;13.02;8.98;;;7.30;99.90;;;;;;5044560;28;20206;-66
2022/01/23 13:32:15;;;;;;;9.63;7.50;;;7.40;99.90;;;;;;5043101;28;20245;-64
2022/01/23 13:34:49;;;;;;;11.13;8.63;;;7.40;99.90;;;;;;5040355;28;20476;-64
2022/01/23 13:37:17;;;;;;;11.60;8.00;;;7.40;99.90;;;;;;5045989;28;20547;-64
2022/01/23 13:39:48;;;;;;;14.32;7.45;;;7.40;99.90;;;;;;5040824;28;21189;-64
2022/01/23 13:42:33;;;;;;;14.93;9.43;;;7.40;99.90;;;;;;5043085;28;20236;-66
2022/01/23 13:48:17;;;;;;;15.50;7.93;;;7.40;99.90;;;;;;5045443;28;20447;-64
2022/01/23 13:51:18;;;;;;;18.20;11.20;;;7.30;99.90;;;;;;5046297;28;20899;-66
2022/01/23 13:54:17;;;;;;;14.20;9.37;;;7.30;99.90;;;;;;5041446;28;20483;-64
2022/01/23 13:59:35;;;;;;;10.30;9.17;;;7.40;99.90;;;;;;5042550;28;20437;-66
2022/01/23 14:04:54;;;;;;;14.70;10.00;;;7.40;99.90;;;;;;5041290;28;20448;-66
2022/01/23 14:07:25;;;;;;;12.88;8.88;;;7.40;99.90;;;;;;5043893;28;20464;-64
2022/01/23 14:09:53;;;;;;;11.88;7.95;;;7.30;99.90;;;;;;5038072;28;20279;-65
2022/01/23 14:12:22;;;;;;;12.90;7.67;;;7.30;99.90;;;;;;5044273;28;20222;-69
2022/01/23 14:14:55;;;;;;;10.98;9.40;;;7.30;99.90;;;;;;5055968;28;20520;-66
2022/01/23 14:17:23;;;;;;;15.63;9.43;;;7.20;99.90;;;;;;5042878;28;20327;-66
2022/01/23 14:19:59;;;;;;;12.88;8.27;;;7.10;99.90;;;;;;5038991;28;20210;-66
2022/01/23 14:22:32;;;;;;;12.07;8.18;;;7.10;99.90;;;;;;5042641;28;20355;-65
2022/01/23 14:25:11;;;;;;;12.23;10.57;;;7.10;99.90;;;;;;5045858;28;20281;-65
2022/01/23 14:27:38;;;;;;;15.85;10.15;;;7.10;99.90;;;;;;5036867;28;20202;-65
2022/01/23 14:30:08;;;;;;;10.35;7.88;;;7.10;99.90;;;;;;5041948;28;20251;-66
2022/01/23 14:32:42;;;;;;;15.93;10.02;;;7.10;99.90;;;;;;5041945;28;20218;-65
2022/01/23 14:35:12;;;;;;;14.40;9.05;;;7.10;99.90;;;;;;5041918;28;20225;-65
2022/01/23 14:37:41;;;;;;;17.10;10.30;;;7.10;99.90;;;;;;5035913;28;20210;-66
2022/01/23 14:40:11;;;;;;;12.65;8.90;;;7.10;99.90;;;;;;5046142;28;20214;-66
2022/01/23 14:42:38;;;;;;;18.13;10.23;;;7.10;99.90;;;;;;5041525;28;20284;-66
2022/01/23 14:45:06;;;;;;;13.43;10.70;;;7.10;99.90;;;;;;5040717;28;20210;-65
2022/01/23 14:47:37;;;;;;;11.35;8.70;;;7.10;99.90;;;;;;5045862;28;20263;-65
2022/01/23 14:50:07;;;;;;;12.68;8.07;;;7.00;99.90;;;;;;5039266;28;20210;-65
2022/01/23 14:52:34;;;;;;;14.00;9.18;;;7.00;99.90;;;;;;5043048;28;20303;-66
2022/01/23 14:55:03;;;;;;;12.50;8.75;;;7.00;99.90;;;;;;5042044;28;20213;-65
2022/01/23 14:57:32;;;;;;;15.63;10.30;;;7.10;99.90;;;;;;5041398;28;20663;-65
2022/01/23 14:59:59;;;;;;;17.23;11.02;;;7.10;99.90;;;;;;5042081;28;20202;-65
2022/01/23 15:02:27;;;;;;;18.42;11.55;;;7.00;99.90;;;;;;5037871;28;21283;-64
2022/01/23 15:04:53;;;;;;;12.77;10.03;;;7.00;99.90;;;;;;5045364;28;20251;-65
2022/01/23 15:07:20;;;;;;;15.98;9.27;;;7.00;99.90;;;;;;5030049;28;20436;-65
2022/01/23 15:09:48;;;;;;;10.55;9.50;;;7.00;99.90;;;;;;5044232;28;20198;-63
2022/01/23 15:12:18;;;;;;;16.40;8.68;;;7.00;99.90;;;;;;5042707;28;20223;-65
2022/01/23 15:14:45;;;;;;;12.57;8.55;;;7.00;99.90;;;;;;5037144;28;20198;-64
2022/01/23 15:17:11;;;;;;;10.93;9.07;;;6.90;99.90;;;;;;5040713;28;20210;-65
2022/01/23 15:19:38;;;;;;;13.23;6.97;;;6.90;99.90;;;;;;5035669;28;20236;-64
2022/01/23 15:22:05;;;;;;;5.40;4.63;;;6.90;99.90;;;;;;5045433;28;20294;-65
2022/01/23 15:24:32;;;;;;;5.43;4.28;;;6.80;99.90;;;;;;5041894;28;20261;-65
2022/01/23 15:26:59;;;;;;;7.63;3.72;;;6.80;99.90;;;;;;5042958;28;21093;-65